Terminal Aerodrome Forecast
Issued by NWS

Home | Current Version | Previous Version | Text Only | Print | Product List | Glossary On
Versions: 1 2 3 4 5 6 7 8 9 10 11 12 13 14 15 16 17 18 19 20
954
FTUS43 KEAX 241731
TAFSTJ
TAF
KSTJ 241731Z 2418/2518 12018G28KT 5SM BR OVC008
      TEMPO 2418/2420 6SM BR SCT008
     FM242030 13018G28KT P6SM SCT120
     FM250100 26012KT P6SM SCT030 SCT120
     FM250400 28015KT P6SM BKN010=

USA.gov is the U.S. government's official web portal to all federal, state and local government web resources and services.